Time;durP1;ratioP1;P1;durP2;ratioP2;P2;SDS_P1;SDS_P2;PMS_P1;PMS_P2;Temp;Humidity;BMP_temperature;BMP_pressure;BME280_temperature;BME280_humidity;BME280_pressure;Samples;Min_cycle;Max_cycle;Signal;HPM_P1;HPM_P2
2023/03/01 00:01:06;;;;;;;7.35;3.33;;;5.60;49.60;;;;;;5038979;28;20435;-66
2023/03/01 00:03:33;;;;;;;7.75;3.20;;;5.60;49.60;;;;;;5039566;28;20029;-66
2023/03/01 00:05:59;;;;;;;7.10;3.30;;;5.60;49.70;;;;;;5039816;28;20059;-66
2023/03/01 00:08:25;;;;;;;9.77;3.40;;;5.60;49.70;;;;;;5027554;28;20100;-66
2023/03/01 00:11:03;;;;;;;7.65;3.58;;;5.60;49.80;;;;;;5038053;28;20033;-66
2023/03/01 00:13:29;;;;;;;6.43;2.83;;;5.60;49.90;;;;;;5037842;28;20418;-66
2023/03/01 00:15:55;;;;;;;6.37;2.83;;;5.60;49.90;;;;;;5036917;28;20344;-66
2023/03/01 00:18:22;;;;;;;6.63;3.03;;;5.50;49.80;;;;;;5013198;28;20037;-66
2023/03/01 00:20:55;;;;;;;9.32;3.05;;;5.60;49.90;;;;;;5035474;28;20067;-66
2023/03/01 00:23:22;;;;;;;6.97;3.08;;;5.50;49.80;;;;;;5031297;28;20080;-66
2023/03/01 00:25:48;;;;;;;6.68;3.22;;;5.50;49.90;;;;;;5031895;28;20064;-66
2023/03/01 00:28:14;;;;;;;7.05;3.28;;;5.50;49.80;;;;;;5034040;28;20052;-66
2023/03/01 00:30:39;;;;;;;7.22;3.00;;;5.50;49.90;;;;;;5031069;28;20116;-66
2023/03/01 00:33:05;;;;;;;7.03;3.00;;;5.50;50.00;;;;;;5034405;28;20025;-66
2023/03/01 00:35:32;;;;;;;6.15;2.83;;;5.50;50.00;;;;;;5034635;28;20033;-66
2023/03/01 00:37:59;;;;;;;6.72;2.97;;;5.50;50.10;;;;;;5034263;28;20022;-66
2023/03/01 00:40:29;;;;;;;7.30;3.13;;;5.50;50.20;;;;;;5030063;28;20037;-66
2023/03/01 00:42:55;;;;;;;6.82;2.80;;;5.50;50.20;;;;;;5036375;28;20034;-66
2023/03/01 00:45:21;;;;;;;7.95;3.40;;;5.50;50.20;;;;;;5034881;28;20029;-66
2023/03/01 00:47:48;;;;;;;7.40;3.17;;;5.50;50.20;;;;;;5028199;28;20029;-65
2023/03/01 00:50:14;;;;;;;7.60;3.03;;;5.40;50.20;;;;;;5021350;28;20348;-65
2023/03/01 00:52:40;;;;;;;7.30;3.17;;;5.40;50.30;;;;;;5044324;28;20025;-66
2023/03/01 00:55:07;;;;;;;8.33;3.83;;;5.40;50.40;;;;;;5035274;28;20097;-66
2023/03/01 00:57:33;;;;;;;6.55;3.05;;;5.40;50.40;;;;;;5024254;28;20103;-65
2023/03/01 00:59:59;;;;;;;6.72;3.35;;;5.40;50.40;;;;;;5028956;28;20034;-65
2023/03/01 01:02:25;;;;;;;6.85;3.13;;;5.40;50.40;;;;;;5042514;28;20021;-66
2023/03/01 01:04:51;;;;;;;6.10;3.03;;;5.30;50.40;;;;;;5025867;28;20373;-66
2023/03/01 01:07:19;;;;;;;9.00;3.95;;;5.30;50.50;;;;;;5037573;28;20419;-66
2023/03/01 01:09:46;;;;;;;7.53;3.43;;;5.30;50.50;;;;;;5055440;28;20040;-66
2023/03/01 01:12:11;;;;;;;6.60;3.30;;;5.30;50.60;;;;;;5044573;28;20037;-66
2023/03/01 01:14:37;;;;;;;7.80;3.23;;;5.30;50.60;;;;;;5039255;28;20375;-66
2023/03/01 01:17:03;;;;;;;8.68;3.58;;;5.20;50.60;;;;;;5035311;28;20332;-66
2023/03/01 01:19:29;;;;;;;6.93;3.53;;;5.20;51.40;;;;;;5030894;28;20075;-66
2023/03/01 01:21:55;;;;;;;7.82;4.05;;;5.20;50.90;;;;;;5039539;28;20041;-66
2023/03/01 01:24:22;;;;;;;7.87;3.80;;;5.10;51.00;;;;;;5032857;28;20419;-66
2023/03/01 01:26:47;;;;;;;11.00;4.07;;;5.10;51.00;;;;;;5023805;28;20109;-67
2023/03/01 01:29:13;;;;;;;8.57;4.00;;;5.10;51.10;;;;;;5021715;28;20518;-67
2023/03/01 01:31:40;;;;;;;8.48;3.97;;;5.10;51.20;;;;;;5033198;28;20021;-66
2023/03/01 01:34:08;;;;;;;8.48;4.63;;;5.00;51.20;;;;;;5031292;28;20323;-66
2023/03/01 01:36:34;;;;;;;7.50;3.83;;;5.00;51.30;;;;;;5036950;28;20045;-66
2023/03/01 01:39:00;;;;;;;9.23;4.63;;;5.00;51.30;;;;;;5032459;28;20024;-65
2023/03/01 01:41:28;;;;;;;8.23;4.50;;;4.90;51.40;;;;;;5028385;28;20040;-66
2023/03/01 01:44:16;;;;;;;8.17;4.00;;;4.90;51.50;;;;;;5036155;28;20109;-65
2023/03/01 01:46:44;;;;;;;8.68;4.00;;;4.90;51.60;;;;;;5034727;28;20034;-65
2023/03/01 01:49:31;;;;;;;9.70;4.70;;;4.90;51.70;;;;;;5029072;28;20033;-66
2023/03/01 01:52:20;;;;;;;7.95;4.28;;;4.80;51.80;;;;;;5037067;28;20037;-66
2023/03/01 01:55:06;;;;;;;8.43;4.20;;;4.80;51.80;;;;;;5026683;28;20485;-66
2023/03/01 01:57:40;;;;;;;9.17;4.40;;;4.80;51.90;;;;;;5025506;28;20021;-66
2023/03/01 02:00:10;;;;;;;8.18;5.13;;;4.80;51.90;;;;;;5026942;28;20327;-66
2023/03/01 02:02:45;;;;;;;9.47;5.50;;;4.70;51.90;;;;;;5035344;28;20359;-66
2023/03/01 02:05:28;;;;;;;10.87;4.90;;;4.70;52.00;;;;;;5030971;28;20103;-66
2023/03/01 02:07:56;;;;;;;9.43;5.37;;;4.70;52.00;;;;;;5035356;28;20029;-66
2023/03/01 02:10:23;;;;;;;9.07;4.83;;;4.70;52.00;;;;;;5031491;28;20033;-66
2023/03/01 02:12:49;;;;;;;8.73;5.23;;;4.70;52.10;;;;;;5034139;28;20021;-66
2023/03/01 02:15:15;;;;;;;8.33;4.40;;;4.70;52.10;;;;;;5035230;28;20028;-65
2023/03/01 02:17:41;;;;;;;9.40;4.57;;;4.70;52.20;;;;;;5028343;28;20034;-65
2023/03/01 02:20:16;;;;;;;7.97;4.83;;;4.60;52.10;;;;;;5031607;28;20022;-65
2023/03/01 02:22:44;;;;;;;8.30;4.70;;;4.60;52.20;;;;;;5037048;28;20029;-66
2023/03/01 02:25:19;;;;;;;9.30;4.73;;;4.60;52.30;;;;;;5022965;28;20113;-66
2023/03/01 02:27:44;;;;;;;9.87;4.63;;;4.60;52.30;;;;;;5038774;28;20072;-66
2023/03/01 02:30:12;;;;;;;9.90;4.63;;;4.60;52.30;;;;;;5028958;28;20522;-65
2023/03/01 02:32:42;;;;;;;8.20;4.53;;;4.60;52.30;;;;;;5024202;28;20470;-65
2023/03/01 02:35:15;;;;;;;8.60;4.83;;;4.60;52.40;;;;;;5031839;28;20021;-66
2023/03/01 02:37:43;;;;;;;8.87;4.77;;;4.60;52.40;;;;;;5034449;28;20375;-65
2023/03/01 02:40:13;;;;;;;9.07;4.77;;;4.60;52.40;;;;;;5031703;28;20069;-65
2023/03/01 02:42:51;;;;;;;9.23;5.27;;;4.50;52.30;;;;;;5027545;28;20029;-65
2023/03/01 02:45:18;;;;;;;10.73;4.87;;;4.50;52.40;;;;;;5031131;28;20028;-65
2023/03/01 02:47:43;;;;;;;8.43;4.57;;;4.50;52.40;;;;;;5034616;28;20404;-66
2023/03/01 02:50:27;;;;;;;7.87;4.33;;;4.50;52.50;;;;;;5031065;28;20037;-66
2023/03/01 02:52:58;;;;;;;9.23;4.40;;;4.50;52.60;;;;;;5034151;28;20457;-65
2023/03/01 02:55:24;;;;;;;8.20;4.30;;;4.50;52.60;;;;;;5030699;28;20108;-65
2023/03/01 02:57:52;;;;;;;9.50;4.47;;;4.50;52.70;;;;;;5034062;28;20366;-65
2023/03/01 03:00:22;;;;;;;8.87;4.33;;;4.50;52.70;;;;;;5045497;28;20021;-65
2023/03/01 03:02:50;;;;;;;10.03;4.20;;;4.40;52.70;;;;;;5033376;28;20057;-65
2023/03/01 03:05:30;;;;;;;9.33;4.77;;;4.40;52.80;;;;;;5055798;28;20032;-65
2023/03/01 03:07:59;;;;;;;9.07;4.90;;;4.40;52.90;;;;;;5033913;28;20465;-65
2023/03/01 03:10:28;;;;;;;9.47;4.43;;;4.40;52.90;;;;;;5038214;28;20418;-65
2023/03/01 03:13:07;;;;;;;8.70;4.63;;;4.40;52.90;;;;;;5031183;28;20476;-65
2023/03/01 03:15:35;;;;;;;8.30;4.57;;;4.40;53.00;;;;;;5037520;28;20029;-65
2023/03/01 03:18:03;;;;;;;9.00;5.20;;;4.30;52.90;;;;;;5032356;28;20021;-65
2023/03/01 03:20:29;;;;;;;8.80;4.60;;;4.30;53.10;;;;;;5045285;28;20030;-66
2023/03/01 03:22:58;;;;;;;8.80;4.43;;;4.30;53.10;;;;;;5029703;28;20033;-65
2023/03/01 03:25:25;;;;;;;8.27;4.27;;;4.30;53.10;;;;;;5038192;28;20336;-65
2023/03/01 03:27:56;;;;;;;8.83;4.33;;;4.30;53.20;;;;;;5033786;28;20104;-65
2023/03/01 03:30:28;;;;;;;8.95;4.18;;;4.30;53.30;;;;;;5042335;28;20032;-65
2023/03/01 03:32:53;;;;;;;;;;;4.30;53.30;;;;;;5021507;28;20366;-65
2023/03/01 03:35:32;;;;;;;7.07;3.77;;;4.20;53.30;;;;;;5037069;28;19917;-65
2023/03/01 03:38:02;;;;;;;9.03;4.13;;;4.20;53.40;;;;;;5033644;28;20025;-65
2023/03/01 03:40:34;;;;;;;8.87;4.30;;;4.10;53.40;;;;;;5036850;28;20069;-65
2023/03/01 03:43:00;;;;;;;9.43;4.30;;;4.20;53.60;;;;;;5027529;28;20033;-65
2023/03/01 03:45:45;;;;;;;8.07;4.73;;;4.20;53.60;;;;;;5134795;27;20370;-64
2023/03/01 03:48:11;;;;;;;8.93;4.73;;;4.20;53.70;;;;;;5124464;28;20016;-64
2023/03/01 03:50:38;;;;;;;10.70;4.73;;;4.20;53.80;;;;;;5115737;28;20369;-64
2023/03/01 03:53:07;;;;;;;8.03;4.27;;;4.10;53.80;;;;;;5124741;27;20028;-64
2023/03/01 03:55:34;;;;;;;8.30;4.27;;;4.20;53.90;;;;;;5127484;27;20031;-65
2023/03/01 03:58:07;;;;;;;7.80;4.00;;;4.20;53.90;;;;;;5128209;28;20038;-65
2023/03/01 04:00:35;;;;;;;9.07;4.33;;;4.10;53.90;;;;;;5116973;28;20081;-65
2023/03/01 04:03:01;;;;;;;8.67;4.53;;;4.10;53.90;;;;;;5116294;28;20056;-65
2023/03/01 04:05:27;;;;;;;10.10;4.80;;;4.10;54.00;;;;;;5113546;28;20442;-65
2023/03/01 04:08:00;;;;;;;8.17;4.43;;;4.10;54.00;;;;;;5122070;28;20020;-65
2023/03/01 04:10:32;;;;;;;8.87;4.33;;;4.10;54.10;;;;;;5116634;28;20100;-65
2023/03/01 04:12:58;;;;;;;7.90;3.88;;;4.10;54.10;;;;;;5099364;28;20498;-65
2023/03/01 04:15:25;;;;;;;9.83;4.40;;;4.10;54.20;;;;;;5116087;28;20027;-65
2023/03/01 04:17:53;;;;;;;7.77;4.13;;;4.10;54.20;;;;;;5117988;28;20460;-65
2023/03/01 04:20:24;;;;;;;7.50;3.93;;;4.10;54.30;;;;;;5102046;28;20356;-64
2023/03/01 04:22:52;;;;;;;9.38;4.85;;;4.00;54.30;;;;;;5111665;28;20028;-65
2023/03/01 04:25:18;;;;;;;9.93;5.20;;;4.00;54.40;;;;;;5117661;28;20025;-64
2023/03/01 04:27:44;;;;;;;8.33;4.50;;;4.00;54.40;;;;;;5125633;28;20027;-64
2023/03/01 04:30:10;;;;;;;9.00;4.40;;;4.00;54.50;;;;;;5125712;27;20446;-64
2023/03/01 04:32:36;;;;;;;8.87;4.47;;;4.00;54.50;;;;;;5103981;28;20044;-65
2023/03/01 04:35:02;;;;;;;9.23;4.53;;;4.00;54.50;;;;;;5118822;27;20024;-65
2023/03/01 04:37:28;;;;;;;8.50;4.13;;;4.00;54.60;;;;;;5114140;28;20027;-65
2023/03/01 04:39:53;;;;;;;8.13;4.33;;;4.00;54.70;;;;;;5127536;28;20122;-65
2023/03/01 04:42:19;;;;;;;8.43;4.43;;;4.00;54.80;;;;;;5116744;28;20024;-65
2023/03/01 04:44:45;;;;;;;8.70;4.50;;;3.90;54.70;;;;;;5124733;27;20042;-65
2023/03/01 04:47:12;;;;;;;9.40;4.70;;;3.90;54.80;;;;;;5109435;28;20031;-65
2023/03/01 04:49:38;;;;;;;8.67;4.13;;;3.90;54.80;;;;;;5119974;28;20367;-65
2023/03/01 04:52:04;;;;;;;8.00;3.93;;;3.90;54.80;;;;;;5115443;27;20324;-65
2023/03/01 04:54:32;;;;;;;9.77;4.83;;;3.90;54.80;;;;;;5112226;28;20059;-65
2023/03/01 04:56:58;;;;;;;8.20;3.97;;;3.90;54.80;;;;;;5102172;28;20471;-65
2023/03/01 04:59:24;;;;;;;10.30;4.53;;;3.90;54.80;;;;;;5105557;28;20338;-66
2023/03/01 05:01:51;;;;;;;7.87;3.93;;;4.00;54.90;;;;;;5096580;28;20036;-65
2023/03/01 05:04:17;;;;;;;9.20;4.47;;;3.90;54.90;;;;;;5083343;28;20141;-65
2023/03/01 05:06:43;;;;;;;8.70;4.10;;;3.90;54.90;;;;;;5100997;28;20031;-65
2023/03/01 05:09:11;;;;;;;8.23;4.20;;;3.90;54.90;;;;;;5122847;27;20076;-65
2023/03/01 05:11:37;;;;;;;7.27;3.70;;;3.90;55.00;;;;;;5101493;28;20027;-65
2023/03/01 05:14:05;;;;;;;7.40;3.73;;;3.90;55.00;;;;;;5128420;27;20024;-65
2023/03/01 05:16:31;;;;;;;8.10;4.10;;;3.90;55.10;;;;;;5092329;28;20413;-65
2023/03/01 05:18:58;;;;;;;8.67;4.13;;;3.90;55.10;;;;;;5095007;28;20035;-65
2023/03/01 05:21:24;;;;;;;9.07;4.00;;;3.90;55.20;;;;;;5094661;28;20028;-65
2023/03/01 05:23:50;;;;;;;7.00;3.37;;;3.80;55.20;;;;;;5092761;28;20467;-65
2023/03/01 05:26:18;;;;;;;8.00;3.97;;;3.90;55.30;;;;;;5095731;28;20077;-65
2023/03/01 05:28:44;;;;;;;8.37;3.83;;;3.80;55.20;;;;;;5103764;28;20035;-65
2023/03/01 05:31:10;;;;;;;7.90;3.67;;;3.80;55.30;;;;;;5095111;28;20045;-65
2023/03/01 05:33:40;;;;;;;7.97;3.80;;;3.80;55.30;;;;;;5088004;28;20105;-65
2023/03/01 05:36:08;;;;;;;7.67;3.83;;;3.80;55.40;;;;;;5102073;28;20437;-65
2023/03/01 05:38:34;;;;;;;10.50;4.93;;;3.80;55.40;;;;;;5098885;28;20048;-65
2023/03/01 05:40:59;;;;;;;10.07;3.83;;;3.80;55.40;;;;;;5099646;28;20038;-65
2023/03/01 05:43:25;;;;;;;10.43;4.17;;;3.80;55.40;;;;;;5110485;28;20508;-65
2023/03/01 05:45:51;;;;;;;8.10;3.80;;;3.80;55.40;;;;;;5112401;28;20032;-65
2023/03/01 05:48:19;;;;;;;7.83;3.83;;;3.80;55.50;;;;;;5102188;28;20027;-65
2023/03/01 05:50:47;;;;;;;8.13;3.80;;;3.80;55.50;;;;;;5093670;28;20103;-65
2023/03/01 05:53:17;;;;;;;8.87;4.30;;;3.80;55.60;;;;;;5105556;27;20036;-65
2023/03/01 05:55:44;;;;;;;7.37;3.87;;;3.70;55.70;;;;;;5095174;28;20032;-65
2023/03/01 05:58:19;;;;;;;8.63;4.23;;;3.70;55.70;;;;;;5099368;28;20067;-65
2023/03/01 06:00:47;;;;;;;9.33;4.43;;;3.70;55.80;;;;;;5104120;28;20020;-65
2023/03/01 06:03:15;;;;;;;8.53;3.77;;;3.60;55.80;;;;;;5102493;28;20051;-65
2023/03/01 06:05:41;;;;;;;9.27;4.70;;;3.60;55.90;;;;;;5095431;28;20032;-65
2023/03/01 06:08:09;;;;;;;7.30;3.70;;;3.60;56.00;;;;;;5092889;28;20027;-65
2023/03/01 06:10:34;;;;;;;8.97;4.53;;;3.60;56.00;;;;;;5127430;27;20023;-65
2023/03/01 06:13:00;;;;;;;8.07;4.37;;;3.60;56.10;;;;;;5093384;28;20027;-66
2023/03/01 06:15:26;;;;;;;7.67;4.20;;;3.60;56.10;;;;;;5100956;28;20605;-66
2023/03/01 06:17:56;;;;;;;9.77;4.10;;;3.60;56.10;;;;;;5096696;28;20027;-66
2023/03/01 06:20:25;;;;;;;8.77;4.13;;;3.60;56.10;;;;;;5101097;28;20169;-66
2023/03/01 06:22:51;;;;;;;8.97;4.83;;;3.60;56.20;;;;;;5093352;28;20057;-67
2023/03/01 06:25:20;;;;;;;9.60;4.97;;;3.60;56.20;;;;;;5093528;28;20031;-67
2023/03/01 06:27:48;;;;;;;8.57;4.30;;;3.60;56.30;;;;;;5094397;28;20028;-67
2023/03/01 06:30:16;;;;;;;8.30;4.23;;;3.60;56.30;;;;;;5094220;28;20155;-67
2023/03/01 06:32:42;;;;;;;8.00;4.00;;;3.60;56.40;;;;;;5083993;28;20350;-67
2023/03/01 06:35:11;;;;;;;8.83;4.40;;;3.60;56.40;;;;;;5092091;28;20032;-67
2023/03/01 06:37:37;;;;;;;9.03;4.50;;;3.50;56.40;;;;;;5092915;28;20139;-67
2023/03/01 06:40:07;;;;;;;8.93;4.80;;;3.50;56.50;;;;;;5094926;28;20524;-67
2023/03/01 06:42:37;;;;;;;8.93;4.40;;;3.50;56.50;;;;;;5095093;28;20070;-67
2023/03/01 06:45:03;;;;;;;8.13;4.17;;;3.50;56.60;;;;;;5093819;28;20055;-67
2023/03/01 06:47:29;;;;;;;7.23;3.90;;;3.50;56.60;;;;;;5093107;28;20038;-67
2023/03/01 06:49:55;;;;;;;9.17;5.10;;;3.50;56.60;;;;;;5102732;28;20436;-67
2023/03/01 06:52:21;;;;;;;8.60;4.77;;;3.50;56.70;;;;;;5093698;28;20028;-67
2023/03/01 06:54:47;;;;;;;9.37;4.77;;;3.50;56.70;;;;;;5098509;28;20040;-66
2023/03/01 06:57:12;;;;;;;7.67;3.97;;;3.60;56.80;;;;;;5091380;28;20062;-66
2023/03/01 06:59:38;;;;;;;9.97;5.13;;;3.60;56.80;;;;;;5103987;28;20054;-65
2023/03/01 07:02:04;;;;;;;8.17;4.47;;;3.60;56.80;;;;;;5097565;27;20115;-65
2023/03/01 07:04:30;;;;;;;8.60;5.20;;;3.60;56.80;;;;;;5099676;27;20055;-65
2023/03/01 07:06:56;;;;;;;8.83;4.57;;;3.70;56.80;;;;;;5095607;28;20020;-65
2023/03/01 07:09:23;;;;;;;9.90;4.93;;;3.70;56.70;;;;;;5104429;28;20487;-66
2023/03/01 07:11:49;;;;;;;10.30;4.90;;;3.70;56.60;;;;;;5084889;28;20028;-67
2023/03/01 07:14:16;;;;;;;10.33;5.23;;;3.70;56.60;;;;;;5099745;28;20024;-67
2023/03/01 07:16:42;;;;;;;10.23;5.30;;;3.80;56.60;;;;;;5106022;27;20460;-68
2023/03/01 07:19:08;;;;;;;9.77;4.67;;;3.80;56.60;;;;;;5122436;27;20036;-67
2023/03/01 07:21:33;;;;;;;9.63;4.53;;;3.80;56.40;;;;;;5091455;28;20085;-67
2023/03/01 07:23:59;;;;;;;8.50;4.20;;;3.90;56.50;;;;;;5094213;28;20031;-67
2023/03/01 07:26:25;;;;;;;9.33;4.53;;;3.90;56.40;;;;;;5071293;28;20036;-67
2023/03/01 07:28:51;;;;;;;10.07;4.63;;;4.00;56.40;;;;;;5085394;28;20062;-68
2023/03/01 07:31:17;;;;;;;8.33;4.87;;;4.10;56.40;;;;;;5095069;28;20024;-67
2023/03/01 07:33:42;;;;;;;10.47;4.60;;;4.10;56.30;;;;;;5093826;28;20439;-67
2023/03/01 07:36:09;;;;;;;11.07;4.87;;;4.20;56.10;;;;;;5076095;28;20026;-67
2023/03/01 07:38:35;;;;;;;8.87;4.90;;;4.30;56.00;;;;;;5107332;28;20096;-68
2023/03/01 07:41:02;;;;;;;10.33;4.83;;;4.50;55.90;;;;;;5106391;28;20452;-68
2023/03/01 07:43:29;;;;;;;9.77;4.60;;;4.60;55.70;;;;;;5089546;28;20024;-67
2023/03/01 07:46:00;;;;;;;8.17;4.70;;;4.80;55.40;;;;;;5100208;28;20043;-67
2023/03/01 07:48:26;;;;;;;9.47;4.77;;;4.90;55.20;;;;;;5106832;28;20032;-67
2023/03/01 07:50:51;;;;;;;10.33;5.10;;;5.10;55.10;;;;;;5094006;28;20441;-68
2023/03/01 07:53:17;;;;;;;8.53;4.63;;;5.20;54.80;;;;;;5091901;28;20016;-68
2023/03/01 07:55:43;;;;;;;8.40;4.80;;;5.30;54.60;;;;;;5092186;28;20389;-68
2023/03/01 07:58:08;;;;;;;8.50;4.43;;;5.40;54.40;;;;;;5091832;28;20374;-68
2023/03/01 08:00:35;;;;;;;8.27;5.00;;;5.60;54.10;;;;;;5100853;28;20032;-70
2023/03/01 08:03:01;;;;;;;9.13;4.77;;;5.70;53.80;;;;;;5082327;28;20054;-68
2023/03/01 08:05:28;;;;;;;8.90;5.10;;;5.80;53.50;;;;;;5120294;28;20035;-67
2023/03/01 08:07:54;;;;;;;7.77;4.03;;;6.00;53.30;;;;;;5091787;28;20395;-68
2023/03/01 08:10:20;;;;;;;9.38;4.70;;;6.10;53.00;;;;;;5095050;28;20420;-67
2023/03/01 08:12:46;;;;;;;9.53;4.53;;;6.30;52.70;;;;;;5121777;28;20024;-67
2023/03/01 08:15:12;;;;;;;8.68;5.18;;;6.40;52.40;;;;;;5109843;28;20070;-67
2023/03/01 08:17:38;;;;;;;11.60;5.03;;;6.60;52.20;;;;;;5090380;28;20375;-67
2023/03/01 08:20:06;;;;;;;8.63;4.57;;;6.70;52.10;;;;;;5088486;28;20107;-67
2023/03/01 08:22:32;;;;;;;8.30;4.40;;;6.80;51.80;;;;;;5089765;28;20046;-67
2023/03/01 08:24:58;;;;;;;8.43;4.63;;;6.90;51.60;;;;;;5086391;28;20461;-67
2023/03/01 08:27:24;;;;;;;11.30;4.82;;;7.00;52.00;;;;;;5082147;28;20504;-67
2023/03/01 08:29:49;;;;;;;9.57;4.70;;;7.10;51.20;;;;;;5094176;28;20028;-68
2023/03/01 08:32:15;;;;;;;8.68;4.38;;;7.30;50.90;;;;;;5095782;28;20020;-68
2023/03/01 08:34:41;;;;;;;8.30;4.28;;;7.50;50.70;;;;;;5088915;28;20024;-68
2023/03/01 08:37:07;;;;;;;8.15;4.10;;;7.60;50.40;;;;;;5096512;28;20445;-67
2023/03/01 08:39:33;;;;;;;9.43;4.40;;;7.80;50.10;;;;;;5097759;28;20441;-67
2023/03/01 08:41:59;;;;;;;8.40;4.10;;;8.00;49.70;;;;;;5096649;28;20024;-67
2023/03/01 08:44:25;;;;;;;8.93;3.67;;;8.10;49.40;;;;;;5094323;28;20047;-68
2023/03/01 08:46:53;;;;;;;9.57;4.50;;;8.30;49.10;;;;;;5097330;28;20028;-68
2023/03/01 08:49:20;;;;;;;9.45;4.10;;;8.40;48.90;;;;;;5091877;28;20423;-68
2023/03/01 08:51:47;;;;;;;9.55;4.30;;;8.50;48.60;;;;;;5112160;28;20128;-68
2023/03/01 08:54:16;;;;;;;9.05;4.65;;;8.70;48.40;;;;;;5088358;28;20353;-68
2023/03/01 08:56:42;;;;;;;8.90;4.00;;;8.80;48.10;;;;;;5097241;28;20039;-67
2023/03/01 08:59:09;;;;;;;7.28;3.83;;;9.00;47.90;;;;;;5095303;28;20043;-67
2023/03/01 09:01:34;;;;;;;9.90;4.00;;;9.20;47.60;;;;;;5095855;28;20032;-67
2023/03/01 09:04:00;;;;;;;7.45;3.95;;;9.30;47.20;;;;;;5092461;28;20040;-67
2023/03/01 09:06:26;;;;;;;9.25;4.22;;;9.40;47.00;;;;;;5096014;28;20432;-67
2023/03/01 09:08:52;;;;;;;6.90;3.17;;;9.60;46.70;;;;;;5104139;28;20079;-68
2023/03/01 09:11:20;;;;;;;8.75;3.88;;;9.70;46.40;;;;;;5083392;28;20020;-68
2023/03/01 09:13:48;;;;;;;7.32;3.65;;;9.80;46.20;;;;;;5096887;28;20024;-68
2023/03/01 09:16:17;;;;;;;10.63;4.38;;;10.00;46.00;;;;;;5096362;28;20008;-67
2023/03/01 09:18:44;;;;;;;7.97;4.03;;;10.10;45.70;;;;;;5104814;28;20117;-67
2023/03/01 09:21:12;;;;;;;7.28;3.33;;;10.30;45.50;;;;;;5095330;28;20020;-67
2023/03/01 09:23:43;;;;;;;7.18;3.38;;;10.50;45.10;;;;;;5095265;28;20052;-67
2023/03/01 09:26:11;;;;;;;8.93;3.47;;;10.50;44.80;;;;;;5094821;28;20122;-68
2023/03/01 09:28:37;;;;;;;7.07;3.10;;;10.60;44.70;;;;;;5109091;28;20046;-68
2023/03/01 09:31:04;;;;;;;7.93;3.58;;;10.70;44.50;;;;;;5125035;27;20016;-66
2023/03/01 09:33:31;;;;;;;8.15;3.75;;;10.80;44.40;;;;;;5096437;28;20086;-67
2023/03/01 09:36:02;;;;;;;9.75;3.95;;;10.90;44.10;;;;;;5101960;28;20024;-66
2023/03/01 09:38:28;;;;;;;7.10;3.50;;;11.00;43.70;;;;;;5093081;28;20453;-67
2023/03/01 09:40:54;;;;;;;8.02;3.78;;;11.10;43.70;;;;;;5097071;28;20020;-68
2023/03/01 09:43:27;;;;;;;10.00;3.40;;;11.10;43.60;;;;;;5094762;28;20058;-67
2023/03/01 09:45:55;;;;;;;7.43;3.40;;;11.10;43.30;;;;;;5091912;28;20043;-68
2023/03/01 09:48:25;;;;;;;8.10;3.97;;;11.20;43.20;;;;;;5091432;28;20099;-67
2023/03/01 09:50:52;;;;;;;8.50;4.00;;;11.20;43.10;;;;;;5125302;27;20399;-67
2023/03/01 09:53:34;;;;;;;9.35;4.25;;;11.20;43.10;;;;;;5088966;28;20027;-67
2023/03/01 09:56:20;;;;;;;7.95;3.97;;;11.20;42.60;;;;;;5103704;28;20039;-68
2023/03/01 09:59:05;;;;;;;9.45;4.03;;;11.20;42.80;;;;;;5094378;28;20463;-68
2023/03/01 10:01:47;;;;;;;9.07;4.07;;;11.20;43.00;;;;;;5094606;28;20414;-68
2023/03/01 10:04:45;;;;;;;11.10;4.43;;;11.40;42.70;;;;;;5092139;28;20027;-67
2023/03/01 10:07:22;;;;;;;7.28;3.80;;;11.40;42.40;;;;;;5100831;28;20039;-68
2023/03/01 10:09:48;;;;;;;9.45;4.70;;;11.40;42.50;;;;;;5092209;28;20043;-68
2023/03/01 10:12:24;;;;;;;9.95;5.22;;;11.50;42.40;;;;;;5094406;28;20027;-68
2023/03/01 10:15:17;;;;;;;8.48;5.30;;;11.50;42.20;;;;;;5097741;28;20027;-68
2023/03/01 10:17:57;;;;;;;10.63;4.97;;;11.60;42.10;;;;;;5086797;28;20031;-68
2023/03/01 10:20:29;;;;;;;8.27;4.38;;;11.70;41.80;;;;;;5088695;28;20020;-67
2023/03/01 10:22:55;;;;;;;8.65;4.53;;;11.60;41.70;;;;;;5101394;28;20028;-68
2023/03/01 10:25:50;;;;;;;7.75;3.55;;;11.60;41.50;;;;;;5092161;28;20036;-68
2023/03/01 10:28:34;;;;;;;9.05;4.35;;;11.60;41.30;;;;;;5099918;27;20028;-67
2023/03/01 10:31:00;;;;;;;8.57;3.97;;;11.70;41.20;;;;;;5099049;28;20080;-67
2023/03/01 10:33:30;;;;;;;8.25;4.28;;;11.70;41.30;;;;;;5086454;28;20020;-67
2023/03/01 10:35:56;;;;;;;7.85;3.53;;;11.70;41.10;;;;;;5092802;28;20346;-67
2023/03/01 10:38:22;;;;;;;7.28;3.58;;;11.80;41.00;;;;;;5095728;28;20027;-67
2023/03/01 10:40:56;;;;;;;7.65;3.53;;;11.80;40.90;;;;;;5086740;28;20028;-68
2023/03/01 10:43:25;;;;;;;7.20;3.63;;;11.90;40.70;;;;;;5094512;28;20038;-68
2023/03/01 10:45:51;;;;;;;7.95;4.03;;;11.90;40.70;;;;;;5090954;28;20043;-67
2023/03/01 10:48:28;;;;;;;10.02;3.92;;;11.90;40.70;;;;;;5104812;28;20429;-68
2023/03/01 10:51:00;;;;;;;9.15;4.03;;;12.00;40.60;;;;;;5090722;28;20150;-68
2023/03/01 10:53:31;;;;;;;7.78;4.03;;;12.00;40.40;;;;;;5107800;27;20027;-68
2023/03/01 10:56:01;;;;;;;7.50;3.60;;;12.00;40.40;;;;;;5088338;28;20032;-68
2023/03/01 10:58:27;;;;;;;9.15;4.38;;;12.00;40.30;;;;;;5097432;28;20035;-67
2023/03/01 11:01:02;;;;;;;7.68;3.95;;;12.00;40.20;;;;;;5092398;28;20020;-68
2023/03/01 11:03:36;;;;;;;7.28;3.78;;;12.00;40.10;;;;;;5095393;28;20472;-68
2023/03/01 11:06:11;;;;;;;7.47;4.18;;;12.00;40.20;;;;;;5097496;28;20027;-68
2023/03/01 11:08:45;;;;;;;8.18;4.07;;;12.00;40.20;;;;;;5099260;28;20040;-67
2023/03/01 11:11:33;;;;;;;7.13;3.67;;;12.00;40.20;;;;;;5093195;28;20016;-68
2023/03/01 11:14:02;;;;;;;6.32;3.20;;;12.10;40.10;;;;;;5091122;28;20027;-68
2023/03/01 11:16:39;;;;;;;7.80;3.75;;;12.10;40.10;;;;;;5093003;28;20122;-68
2023/03/01 11:19:11;;;;;;;7.07;3.17;;;12.10;39.80;;;;;;5086772;28;20161;-68
2023/03/01 11:21:42;;;;;;;7.25;3.88;;;12.10;39.80;;;;;;5081458;28;20039;-68
2023/03/01 11:24:12;;;;;;;7.28;3.80;;;12.00;39.70;;;;;;5092509;28;20716;-68
2023/03/01 11:26:42;;;;;;;9.20;3.92;;;12.10;39.60;;;;;;5102053;28;20097;-71
2023/03/01 11:29:21;;;;;;;7.20;3.75;;;12.00;39.50;;;;;;5096300;28;20034;-71
2023/03/01 11:31:48;;;;;;;6.22;2.95;;;12.00;39.30;;;;;;5084556;28;20032;-71
2023/03/01 11:34:20;;;;;;;7.50;3.85;;;12.10;39.50;;;;;;5080945;28;20177;-68
2023/03/01 11:36:54;;;;;;;8.77;4.20;;;12.10;39.30;;;;;;5090966;28;20100;-68
2023/03/01 11:39:32;;;;;;;7.32;3.58;;;12.10;39.10;;;;;;5078524;28;20027;-68
2023/03/01 11:42:47;;;;;;;8.40;3.83;;;12.10;39.10;;;;;;5088974;28;20034;-69
2023/03/01 11:45:13;;;;;;;7.50;3.65;;;12.10;39.00;;;;;;5029404;28;20048;-69
2023/03/01 11:47:51;;;;;;;8.13;3.53;;;12.00;39.20;;;;;;5094085;28;20070;-67
2023/03/01 11:50:42;;;;;;;7.32;3.00;;;12.00;39.10;;;;;;5096115;28;20035;-69
2023/03/01 11:53:27;;;;;;;7.50;3.67;;;12.00;39.10;;;;;;5083745;28;20034;-71
2023/03/01 11:56:21;;;;;;;7.03;3.33;;;12.00;39.20;;;;;;5078005;28;20051;-70
2023/03/01 11:59:12;;;;;;;8.88;3.65;;;12.00;39.10;;;;;;5091936;28;20047;-70
2023/03/01 12:01:53;;;;;;;6.65;3.35;;;12.00;38.90;;;;;;5104737;28;20135;-69
2023/03/01 12:04:53;;;;;;;10.00;3.60;;;11.80;39.10;;;;;;5091197;28;20034;-70
2023/03/01 12:07:46;;;;;;;7.55;3.53;;;11.80;39.00;;;;;;5094039;28;20353;-69
2023/03/01 12:10:18;;;;;;;7.50;3.72;;;11.80;39.00;;;;;;5107892;28;20178;-69
2023/03/01 12:13:08;;;;;;;7.47;3.78;;;11.70;39.00;;;;;;5097906;28;20024;-71
2023/03/01 12:16:06;;;;;;;7.00;3.75;;;11.70;39.10;;;;;;5087309;28;20036;-70
2023/03/01 12:18:44;;;;;;;7.85;3.72;;;11.60;39.20;;;;;;5079724;28;20342;-69
2023/03/01 12:21:21;;;;;;;7.82;3.53;;;11.50;39.10;;;;;;5097098;28;20028;-70
2023/03/01 12:23:53;;;;;;;8.10;4.03;;;11.40;38.90;;;;;;5088282;28;20106;-71
2023/03/01 12:26:40;;;;;;;8.27;3.25;;;11.40;39.00;;;;;;5092680;28;20035;-70
2023/03/01 12:29:33;;;;;;;7.80;3.17;;;11.30;39.00;;;;;;5096400;28;20089;-70
2023/03/01 12:32:28;;;;;;;8.68;3.60;;;11.20;39.10;;;;;;5098031;28;20078;-70
2023/03/01 12:35:23;;;;;;;6.88;3.22;;;11.20;39.10;;;;;;5086832;28;20302;-70
2023/03/01 12:38:16;;;;;;;7.47;3.58;;;11.20;39.10;;;;;;5097073;28;20093;-70
2023/03/01 12:40:48;;;;;;;7.53;3.78;;;11.10;39.10;;;;;;5083158;28;20071;-70
2023/03/01 12:43:37;;;;;;;7.30;3.75;;;11.10;39.20;;;;;;5096696;28;20040;-70
2023/03/01 12:46:08;;;;;;;8.07;3.15;;;11.10;39.10;;;;;;5086043;28;20069;-70
2023/03/01 12:48:50;;;;;;;7.45;3.45;;;11.10;39.30;;;;;;5096200;28;20399;-70
2023/03/01 12:51:22;;;;;;;7.20;3.35;;;11.10;39.30;;;;;;5086105;28;20192;-70
2023/03/01 12:53:50;;;;;;;7.40;3.28;;;11.10;39.20;;;;;;5093704;28;20035;-70
2023/03/01 12:56:22;;;;;;;6.93;3.80;;;11.00;39.10;;;;;;5095891;28;20056;-70
2023/03/01 12:58:58;;;;;;;7.10;3.60;;;11.00;39.10;;;;;;5112882;28;20038;-69
2023/03/01 13:01:27;;;;;;;7.45;3.40;;;10.90;39.00;;;;;;5076577;28;20334;-69
2023/03/01 13:04:14;;;;;;;7.90;3.65;;;10.90;38.90;;;;;;5095505;28;20024;-70
2023/03/01 13:06:58;;;;;;;7.68;3.72;;;10.80;38.90;;;;;;5096314;28;20039;-70
2023/03/01 13:09:37;;;;;;;6.43;2.78;;;10.80;38.80;;;;;;5078550;28;20557;-69